createdAt,value
2023-05-15T00:00:25.134Z,7.78
2023-05-15T00:02:52.110Z,8.15
2023-05-15T00:05:19.173Z,8.32
2023-05-15T00:07:46.091Z,9.13
2023-05-15T00:10:13.068Z,8.70
2023-05-15T00:12:40.030Z,7.88
2023-05-15T00:15:07.589Z,9.00
2023-05-15T00:17:34.547Z,8.38
2023-05-15T00:20:01.681Z,8.65
2023-05-15T00:22:28.617Z,9.15
2023-05-15T00:24:55.547Z,8.75
2023-05-15T00:27:28.682Z,8.80
2023-05-15T00:29:55.744Z,9.30
2023-05-15T00:32:22.692Z,8.68
2023-05-15T00:34:49.716Z,8.73
2023-05-15T00:37:16.669Z,9.00
2023-05-15T00:39:43.609Z,9.35
2023-05-15T00:42:11.121Z,9.25
2023-05-15T00:44:40.162Z,9.18
2023-05-15T00:47:07.979Z,9.15
2023-05-15T00:49:37.467Z,9.32
2023-05-15T00:52:05.698Z,9.63
2023-05-15T00:54:32.664Z,8.82
2023-05-15T00:57:00.935Z,9.77
2023-05-15T00:59:32.710Z,9.65
2023-05-15T01:01:59.748Z,9.82
2023-05-15T01:04:26.816Z,9.73
2023-05-15T01:06:54.193Z,9.35
2023-05-15T01:09:24.470Z,10.10
2023-05-15T01:11:54.293Z,9.45
2023-05-15T01:14:21.395Z,9.43
2023-05-15T01:16:48.489Z,9.75
2023-05-15T01:19:15.828Z,9.82
2023-05-15T01:22:01.222Z,9.95
2023-05-15T01:24:51.035Z,9.15
2023-05-15T01:27:37.015Z,9.98
2023-05-15T01:30:28.769Z,10.13
2023-05-15T01:33:12.193Z,9.93
2023-05-15T01:35:52.076Z,9.55
2023-05-15T01:38:21.879Z,10.40
2023-05-15T01:40:51.745Z,9.35
2023-05-15T01:43:23.757Z,10.18
2023-05-15T01:45:50.710Z,9.95
2023-05-15T01:48:19.422Z,10.18
2023-05-15T01:50:47.481Z,9.70
2023-05-15T01:53:15.272Z,10.00
2023-05-15T01:55:42.687Z,9.82
2023-05-15T01:58:10.216Z,10.30
2023-05-15T02:00:38.553Z,9.75
2023-05-15T02:03:07.060Z,9.75
2023-05-15T02:05:35.549Z,10.68
2023-05-15T02:08:04.962Z,10.45
2023-05-15T02:10:33.759Z,9.80
2023-05-15T02:13:01.496Z,10.65
2023-05-15T02:15:29.921Z,10.65
2023-05-15T02:17:57.097Z,10.32
2023-05-15T02:20:24.123Z,10.13
2023-05-15T02:22:51.052Z,9.60
2023-05-15T02:25:18.290Z,10.32
2023-05-15T02:28:00.389Z,10.98
2023-05-15T02:30:49.539Z,10.32
2023-05-15T02:33:38.037Z,10.52
2023-05-15T02:36:11.289Z,10.70
2023-05-15T02:38:53.739Z,10.27
2023-05-15T02:41:22.195Z,11.43
2023-05-15T02:43:51.953Z,11.00
2023-05-15T02:46:20.740Z,11.82
2023-05-15T02:48:48.645Z,11.23
2023-05-15T02:51:15.787Z,11.38
2023-05-15T02:53:43.273Z,12.73
2023-05-15T02:56:10.350Z,12.98
2023-05-15T02:58:38.978Z,11.80
2023-05-15T03:01:06.297Z,9.02
2023-05-15T03:03:33.344Z,8.63
2023-05-15T03:06:01.140Z,7.95
2023-05-15T03:08:28.387Z,7.35
2023-05-15T03:10:55.460Z,8.23
2023-05-15T03:13:22.422Z,8.20
2023-05-15T03:15:49.325Z,13.85
2023-05-15T03:18:19.049Z,11.68
2023-05-15T03:20:48.635Z,9.23
2023-05-15T03:23:15.770Z,8.55
2023-05-15T03:25:42.677Z,8.10
2023-05-15T03:28:09.685Z,8.55
2023-05-15T03:30:36.676Z,8.57
2023-05-15T03:33:04.170Z,8.20
2023-05-15T03:35:32.547Z,8.07
2023-05-15T03:37:59.623Z,8.32
2023-05-15T03:40:26.637Z,7.93
2023-05-15T03:42:53.878Z,7.93
2023-05-15T03:45:21.549Z,7.97
2023-05-15T03:47:48.793Z,8.10
2023-05-15T03:50:16.199Z,8.35
2023-05-15T03:52:43.274Z,8.45
2023-05-15T03:55:10.366Z,7.82
2023-05-15T03:57:37.391Z,9.25
2023-05-15T04:00:10.251Z,8.10
2023-05-15T04:02:45.969Z,9.50
2023-05-15T04:05:13.976Z,8.05
2023-05-15T04:07:41.114Z,7.18
2023-05-15T04:10:09.211Z,7.70
2023-05-15T04:12:36.738Z,7.13
2023-05-15T04:15:27.214Z,7.93
2023-05-15T04:17:54.618Z,7.85
2023-05-15T04:20:24.419Z,7.28
2023-05-15T04:22:52.067Z,7.55
2023-05-15T04:25:20.360Z,7.85
2023-05-15T04:27:47.839Z,8.15
2023-05-15T04:30:14.890Z,6.78
2023-05-15T04:32:42.456Z,7.18
2023-05-15T04:35:12.087Z,6.90
2023-05-15T04:37:40.646Z,6.97
2023-05-15T04:40:08.644Z,7.10
2023-05-15T04:42:37.692Z,7.45
2023-05-15T04:45:06.360Z,6.90
2023-05-15T04:47:33.349Z,6.78
2023-05-15T04:50:00.309Z,6.53
2023-05-15T04:52:27.279Z,6.75
2023-05-15T04:54:56.028Z,7.30
2023-05-15T04:57:23.429Z,7.07
2023-05-15T04:59:50.440Z,7.05
2023-05-15T05:02:22.506Z,11.45
2023-05-15T05:04:49.907Z,6.60
2023-05-15T05:07:17.230Z,7.03
2023-05-15T05:09:44.578Z,7.15
2023-05-15T05:12:11.842Z,5.97
2023-05-15T05:14:40.785Z,6.55
2023-05-15T05:17:08.047Z,6.35
2023-05-15T05:19:34.984Z,6.25
2023-05-15T05:22:05.083Z,6.18
2023-05-15T05:24:32.578Z,5.95
2023-05-15T05:27:00.661Z,6.05
2023-05-15T05:29:27.592Z,5.90
2023-05-15T05:31:54.682Z,6.38
2023-05-15T05:34:22.136Z,5.75
2023-05-15T05:36:49.223Z,6.07
2023-05-15T05:39:17.432Z,5.97
2023-05-15T05:41:44.911Z,5.75
2023-05-15T05:44:12.061Z,5.28
2023-05-15T05:46:39.089Z,5.90
2023-05-15T05:49:06.108Z,4.93
2023-05-15T05:51:34.796Z,5.38
2023-05-15T05:54:01.694Z,5.10
2023-05-15T05:56:28.896Z,5.18
2023-05-15T05:58:56.552Z,5.40
2023-05-15T06:01:23.677Z,4.85
2023-05-15T06:03:51.358Z,5.80
2023-05-15T06:06:18.341Z,4.85
2023-05-15T06:08:45.247Z,5.10
2023-05-15T06:11:12.174Z,5.90
2023-05-15T06:13:39.118Z,5.13
2023-05-15T06:16:06.611Z,4.85
2023-05-15T06:18:33.639Z,4.47
2023-05-15T06:21:00.713Z,4.43
2023-05-15T06:23:27.932Z,4.25
2023-05-15T06:25:54.953Z,4.18
2023-05-15T06:28:21.966Z,4.55
2023-05-15T06:30:48.993Z,4.45
2023-05-15T06:33:16.000Z,3.97
2023-05-15T06:35:42.972Z,3.58
2023-05-15T06:38:09.931Z,3.85
2023-05-15T06:40:36.844Z,4.30
2023-05-15T06:43:03.939Z,4.57
2023-05-15T06:45:31.586Z,3.63
2023-05-15T06:48:01.450Z,3.28
2023-05-15T06:50:28.980Z,3.25
2023-05-15T06:52:55.967Z,4.07
2023-05-15T06:55:24.368Z,3.22
2023-05-15T06:57:51.422Z,9.18
2023-05-15T07:00:18.655Z,3.15
2023-05-15T07:02:45.682Z,3.10
2023-05-15T07:05:14.574Z,3.28
2023-05-15T07:07:41.875Z,3.92
2023-05-15T07:10:09.729Z,2.95
2023-05-15T07:12:36.685Z,3.53
2023-05-15T07:15:04.242Z,3.90
2023-05-15T07:17:33.684Z,3.30
2023-05-15T07:20:00.761Z,3.43
2023-05-15T07:22:29.207Z,3.13
2023-05-15T07:24:56.214Z,3.05
2023-05-15T07:27:34.920Z,3.15
2023-05-15T07:30:04.199Z,2.97
2023-05-15T07:32:31.425Z,3.35
2023-05-15T07:34:58.450Z,4.47
2023-05-15T07:37:25.770Z,3.17
2023-05-15T07:39:52.920Z,2.70
2023-05-15T07:42:19.892Z,2.80
2023-05-15T07:44:49.401Z,4.82
2023-05-15T07:47:17.070Z,2.67
2023-05-15T07:49:43.994Z,2.70
2023-05-15T07:52:10.970Z,3.13
2023-05-15T07:54:39.633Z,3.30
2023-05-15T07:57:06.578Z,2.88
2023-05-15T07:59:33.763Z,2.67
2023-05-15T08:02:00.794Z,2.65
2023-05-15T08:04:27.838Z,3.28
2023-05-15T08:06:54.876Z,3.05
2023-05-15T08:09:21.858Z,2.85
2023-05-15T08:11:48.779Z,3.25
2023-05-15T08:14:15.735Z,4.75
2023-05-15T08:16:42.640Z,2.30
2023-05-15T08:19:10.462Z,2.70
2023-05-15T08:21:37.822Z,2.78
2023-05-15T08:24:05.100Z,2.70
2023-05-15T08:26:33.099Z,2.72
2023-05-15T08:29:00.082Z,2.25
2023-05-15T08:31:27.194Z,3.20
2023-05-15T08:33:54.240Z,2.83
2023-05-15T08:36:21.912Z,2.28
2023-05-15T08:38:48.869Z,2.75
2023-05-15T08:41:39.455Z,2.60
2023-05-15T08:44:11.160Z,2.63
2023-05-15T08:46:39.003Z,2.63
2023-05-15T08:49:31.237Z,2.80
2023-05-15T08:51:58.291Z,2.53
2023-05-15T08:54:25.933Z,2.40
2023-05-15T08:56:53.579Z,2.42
2023-05-15T08:59:20.808Z,2.58
2023-05-15T09:01:47.842Z,2.75
2023-05-15T09:04:14.834Z,3.58
2023-05-15T09:06:43.747Z,2.63
2023-05-15T09:09:13.585Z,8.68
2023-05-15T09:11:45.538Z,3.05
2023-05-15T09:14:12.544Z,2.45
2023-05-15T09:16:40.000Z,2.60
2023-05-15T09:19:07.419Z,2.95
2023-05-15T09:21:34.863Z,3.13
2023-05-15T09:24:28.393Z,2.65
2023-05-15T09:27:08.450Z,2.50
2023-05-15T09:29:37.822Z,2.40
2023-05-15T09:32:06.632Z,2.25
2023-05-15T09:34:35.772Z,2.33
2023-05-15T09:37:04.752Z,2.60
2023-05-15T09:39:31.863Z,2.78
2023-05-15T09:42:10.256Z,2.80
2023-05-15T09:44:41.754Z,2.17
2023-05-15T09:47:10.127Z,2.42
2023-05-15T09:49:37.651Z,2.63
2023-05-15T09:52:09.214Z,2.50
2023-05-15T09:54:37.574Z,2.70
2023-05-15T09:57:11.934Z,2.70
2023-05-15T09:59:49.441Z,2.38
2023-05-15T10:02:34.935Z,2.90
2023-05-15T10:05:02.122Z,2.20
2023-05-15T10:07:35.109Z,2.47
2023-05-15T10:10:04.310Z,2.50
2023-05-15T10:12:32.487Z,2.35
2023-05-15T10:15:01.381Z,3.65
2023-05-15T10:17:31.788Z,2.35
2023-05-15T10:20:00.845Z,2.38
2023-05-15T10:22:35.809Z,2.38
2023-05-15T10:25:28.235Z,2.55
2023-05-15T10:27:55.971Z,2.35
2023-05-15T10:30:23.675Z,2.75
2023-05-15T10:32:51.529Z,2.33
2023-05-15T10:35:19.017Z,2.35
2023-05-15T10:37:48.152Z,2.30
2023-05-15T10:40:16.743Z,3.03
2023-05-15T10:42:46.376Z,2.30
2023-05-15T10:45:14.079Z,2.10
2023-05-15T10:47:43.270Z,2.20
2023-05-15T10:50:12.062Z,2.30
2023-05-15T10:52:39.580Z,2.22
2023-05-15T10:55:08.804Z,2.20
2023-05-15T10:57:39.060Z,2.22
2023-05-15T11:00:27.174Z,2.00
2023-05-15T11:02:57.228Z,2.05
2023-05-15T11:05:24.989Z,2.70
2023-05-15T11:08:14.935Z,2.20
2023-05-15T11:10:42.014Z,1.90
2023-05-15T11:13:09.033Z,7.55
2023-05-15T11:15:46.728Z,2.20
2023-05-15T11:18:14.101Z,2.80
2023-05-15T11:20:45.731Z,2.30
2023-05-15T11:23:12.712Z,1.98
2023-05-15T11:25:39.971Z,2.00
2023-05-15T11:28:07.773Z,1.90
2023-05-15T11:30:39.711Z,2.20
2023-05-15T11:33:13.907Z,1.92
2023-05-15T11:35:48.235Z,2.03
2023-05-15T11:38:24.708Z,2.13
2023-05-15T11:40:58.446Z,2.10
2023-05-15T11:43:27.492Z,2.22
2023-05-15T11:46:05.722Z,2.47
2023-05-15T11:48:34.510Z,2.28
2023-05-15T11:51:02.390Z,1.80
2023-05-15T11:53:30.787Z,2.20
2023-05-15T11:55:58.067Z,1.90
2023-05-15T11:58:26.729Z,2.40
2023-05-15T12:00:54.103Z,1.92
2023-05-15T12:06:06.890Z,2.10
2023-05-15T12:08:42.141Z,2.08
2023-05-15T12:11:09.538Z,1.95
2023-05-15T12:13:36.680Z,1.90
2023-05-15T12:16:04.571Z,2.17
2023-05-15T12:18:33.206Z,1.90
2023-05-15T12:21:00.999Z,1.52
2023-05-15T12:23:28.688Z,1.73
2023-05-15T12:26:01.072Z,2.50
2023-05-15T12:28:29.800Z,1.85
2023-05-15T12:30:57.879Z,1.30
2023-05-15T12:33:25.415Z,1.48
2023-05-15T12:36:00.777Z,1.70
2023-05-15T12:38:28.969Z,1.70
2023-05-15T12:40:57.229Z,1.40
2023-05-15T12:43:25.777Z,1.40
2023-05-15T12:45:54.717Z,1.90
2023-05-15T12:48:21.984Z,1.45
2023-05-15T12:50:50.003Z,1.58
2023-05-15T12:53:17.581Z,1.40
2023-05-15T12:55:46.896Z,1.33
2023-05-15T12:58:18.825Z,2.00
2023-05-15T13:00:50.253Z,1.52
2023-05-15T13:03:21.794Z,1.90
2023-05-15T13:05:48.979Z,1.80
2023-05-15T13:08:19.045Z,2.00
2023-05-15T13:10:47.316Z,3.70
2023-05-15T13:13:15.246Z,2.78
2023-05-15T13:18:15.008Z,2.10
2023-05-15T13:20:46.311Z,2.35
2023-05-15T13:23:19.830Z,2.10
2023-05-15T13:25:47.258Z,2.30
2023-05-15T13:28:14.372Z,2.70
2023-05-15T13:30:42.233Z,2.20
2023-05-15T13:33:10.871Z,2.60
2023-05-15T13:35:38.898Z,3.15
2023-05-15T13:38:06.522Z,2.30
2023-05-15T13:40:37.403Z,2.60
2023-05-15T13:43:06.671Z,2.47
2023-05-15T13:45:33.849Z,2.63
2023-05-15T13:48:00.911Z,2.53
2023-05-15T13:50:28.144Z,2.13
2023-05-15T13:52:55.238Z,2.20
2023-05-15T13:55:23.289Z,3.30
2023-05-15T13:57:51.686Z,2.33
2023-05-15T14:00:19.858Z,2.67
2023-05-15T14:02:47.003Z,2.30
2023-05-15T14:05:15.502Z,3.25
2023-05-15T14:07:43.202Z,1.95
2023-05-15T14:10:11.358Z,2.80
2023-05-15T14:12:38.838Z,3.00
2023-05-15T14:15:06.600Z,2.55
2023-05-15T14:17:33.606Z,2.30
2023-05-15T14:20:00.681Z,2.58
2023-05-15T14:22:27.698Z,2.65
2023-05-15T14:24:54.640Z,2.03
2023-05-15T14:27:21.576Z,5.20
2023-05-15T14:29:49.450Z,4.00
2023-05-15T14:32:17.191Z,2.47
2023-05-15T14:34:44.804Z,2.70
2023-05-15T14:37:11.831Z,2.40
2023-05-15T14:39:38.944Z,2.53
2023-05-15T14:42:06.521Z,2.05
2023-05-15T14:44:36.599Z,2.92
2023-05-15T14:47:12.764Z,2.53
2023-05-15T14:49:40.589Z,2.40
2023-05-15T14:52:09.838Z,2.85
2023-05-15T14:54:37.366Z,2.88
2023-05-15T14:57:04.439Z,2.63
2023-05-15T14:59:31.468Z,2.47
2023-05-15T15:01:58.516Z,2.50
2023-05-15T15:04:26.850Z,5.18
2023-05-15T15:06:57.070Z,2.55
2023-05-15T15:09:25.540Z,2.67
2023-05-15T15:11:54.086Z,2.50
2023-05-15T15:14:21.132Z,2.50
2023-05-15T15:16:48.153Z,2.55
2023-05-15T15:19:17.502Z,2.58
2023-05-15T15:21:46.002Z,2.55
2023-05-15T15:24:12.920Z,2.90
2023-05-15T15:26:40.131Z,2.60
2023-05-15T15:29:07.157Z,2.55
2023-05-15T15:31:34.140Z,2.50
2023-05-15T15:34:04.434Z,2.78
2023-05-15T15:36:32.582Z,2.70
2023-05-15T15:38:59.506Z,2.50
2023-05-15T15:41:26.457Z,2.85
2023-05-15T15:43:54.004Z,2.75
2023-05-15T15:46:21.099Z,2.53
2023-05-15T15:48:48.708Z,3.03
2023-05-15T15:51:17.068Z,3.00
2023-05-15T15:53:43.994Z,3.10
2023-05-15T15:56:11.006Z,2.85
2023-05-15T15:58:37.911Z,2.72
2023-05-15T16:01:05.089Z,2.70
2023-05-15T16:03:32.184Z,3.53
2023-05-15T16:06:00.307Z,2.65
2023-05-15T16:08:27.570Z,2.90
2023-05-15T16:10:55.173Z,2.78
2023-05-15T16:13:22.205Z,2.80
2023-05-15T16:15:49.241Z,2.65
2023-05-15T16:18:16.739Z,2.55
2023-05-15T16:20:43.932Z,2.88
2023-05-15T16:23:14.263Z,12.48
2023-05-15T16:25:41.800Z,2.88
2023-05-15T16:28:10.009Z,3.17
2023-05-15T16:30:47.966Z,2.92
2023-05-15T16:33:17.898Z,3.13
2023-05-15T16:35:45.668Z,2.92
2023-05-15T16:38:13.482Z,2.95
2023-05-15T16:40:40.590Z,3.00
2023-05-15T16:43:07.523Z,8.85
2023-05-15T16:45:34.467Z,2.97
2023-05-15T16:48:01.588Z,2.78
2023-05-15T16:50:31.037Z,2.85
2023-05-15T16:52:59.025Z,2.97
2023-05-15T16:55:26.138Z,3.03
2023-05-15T16:57:53.085Z,3.92
2023-05-15T17:00:21.071Z,2.97
2023-05-15T17:02:49.122Z,2.95
2023-05-15T17:05:16.526Z,47.63
2023-05-15T17:07:44.758Z,3.38
2023-05-15T17:10:12.704Z,2.90
2023-05-15T17:12:39.780Z,2.72
2023-05-15T17:15:07.393Z,3.20
2023-05-15T17:17:34.471Z,3.97
2023-05-15T17:20:02.738Z,3.05
2023-05-15T17:22:30.602Z,4.47
2023-05-15T17:24:57.784Z,3.58
2023-05-15T17:27:24.751Z,3.25
2023-05-15T17:29:51.962Z,3.05
2023-05-15T17:32:19.454Z,3.03
2023-05-15T17:34:46.728Z,3.40
2023-05-15T17:37:13.981Z,2.83
2023-05-15T17:39:43.962Z,3.28
2023-05-15T17:42:10.997Z,3.20
2023-05-15T17:44:38.020Z,3.50
2023-05-15T17:47:05.199Z,3.65
2023-05-15T17:49:34.266Z,3.03
2023-05-15T17:52:01.428Z,3.03
2023-05-15T17:54:28.341Z,3.25
2023-05-15T17:56:55.334Z,3.60
2023-05-15T17:59:22.334Z,3.60
2023-05-15T18:01:49.361Z,3.22
2023-05-15T18:04:16.370Z,3.05
2023-05-15T18:06:43.423Z,3.20
2023-05-15T18:09:10.652Z,3.25
2023-05-15T18:11:37.634Z,3.60
2023-05-15T18:14:04.566Z,3.63
2023-05-15T18:16:32.900Z,3.20
2023-05-15T18:19:00.168Z,9.23
2023-05-15T18:21:27.301Z,4.05
2023-05-15T18:23:54.223Z,5.43
2023-05-15T18:26:21.672Z,2.90
2023-05-15T18:28:49.497Z,3.53
2023-05-15T18:31:16.612Z,3.33
2023-05-15T18:33:44.979Z,2.92
2023-05-15T18:36:12.000Z,3.38
2023-05-15T18:38:39.021Z,3.40
2023-05-15T18:41:05.998Z,3.30
2023-05-15T18:43:32.962Z,3.58
2023-05-15T18:45:59.982Z,3.50
2023-05-15T18:48:26.993Z,2.90
2023-05-15T18:50:54.222Z,3.10
2023-05-15T18:53:21.632Z,3.40
2023-05-15T18:55:48.629Z,3.22
2023-05-15T18:58:15.615Z,3.22
2023-05-15T19:00:42.556Z,3.28
2023-05-15T19:03:09.725Z,3.40
2023-05-15T19:05:36.885Z,3.78
2023-05-15T19:08:04.600Z,2.70
2023-05-15T19:10:31.691Z,3.20
2023-05-15T19:12:58.824Z,4.00
2023-05-15T19:15:25.844Z,3.10
2023-05-15T19:17:53.107Z,3.17
2023-05-15T19:20:21.509Z,3.40
2023-05-15T19:22:48.584Z,3.08
2023-05-15T19:25:15.607Z,3.38
2023-05-15T19:27:42.638Z,3.17
2023-05-15T19:30:10.167Z,2.92
2023-05-15T19:32:37.681Z,3.10
2023-05-15T19:35:05.412Z,2.78
2023-05-15T19:37:32.325Z,3.20
2023-05-15T19:39:59.251Z,2.95
2023-05-15T19:42:26.536Z,2.88
2023-05-15T19:44:53.486Z,3.10
2023-05-15T19:47:20.756Z,2.83
2023-05-15T19:49:47.702Z,2.83
2023-05-15T19:52:15.503Z,3.25
2023-05-15T19:54:42.433Z,2.67
2023-05-15T19:57:09.482Z,3.08
2023-05-15T19:59:36.472Z,3.00
2023-05-15T20:02:03.634Z,2.83
2023-05-15T20:04:32.657Z,3.08
2023-05-15T20:06:59.642Z,2.83
2023-05-15T20:09:26.604Z,2.92
2023-05-15T20:11:53.597Z,3.08
2023-05-15T20:14:20.579Z,2.90
2023-05-15T20:16:48.166Z,3.10
2023-05-15T20:19:17.101Z,3.20
2023-05-15T20:21:44.086Z,3.10
2023-05-15T20:24:12.124Z,3.10
2023-05-15T20:26:39.189Z,2.90
2023-05-15T20:29:06.151Z,2.83
2023-05-15T20:31:33.731Z,2.63
2023-05-15T20:34:01.056Z,2.88
2023-05-15T20:36:28.361Z,2.85
2023-05-15T20:38:55.919Z,4.85
2023-05-15T20:41:23.360Z,9.93
2023-05-15T20:43:50.397Z,4.00
2023-05-15T20:46:17.465Z,3.35
2023-05-15T20:48:44.582Z,3.22
2023-05-15T20:51:11.489Z,3.55
2023-05-15T20:53:38.434Z,4.00
2023-05-15T20:56:05.579Z,2.97
2023-05-15T20:58:33.046Z,3.78
2023-05-15T21:01:01.254Z,3.17
2023-05-15T21:03:29.097Z,3.53
2023-05-15T21:05:57.485Z,3.42
2023-05-15T21:08:24.819Z,3.65
2023-05-15T21:10:54.075Z,3.50
2023-05-15T21:13:21.306Z,3.83
2023-05-15T21:15:59.594Z,3.30
2023-05-15T21:18:26.645Z,3.13
2023-05-15T21:20:53.620Z,3.63
2023-05-15T21:23:21.447Z,3.50
2023-05-15T21:25:48.389Z,3.63
2023-05-15T21:28:15.906Z,3.78
2023-05-15T21:30:43.068Z,3.45
2023-05-15T21:33:10.496Z,3.30
2023-05-15T21:35:38.117Z,3.65
2023-05-15T21:38:05.466Z,3.63
2023-05-15T21:40:32.683Z,3.42
2023-05-15T21:42:59.665Z,3.95
2023-05-15T21:45:26.694Z,3.70
2023-05-15T21:47:53.693Z,3.47
2023-05-15T21:50:20.706Z,3.13
2023-05-15T21:52:50.428Z,4.03
2023-05-15T21:55:18.430Z,3.50
2023-05-15T21:57:45.584Z,3.90
2023-05-15T22:00:14.184Z,4.00
2023-05-15T22:02:41.686Z,3.90
2023-05-15T22:05:09.138Z,3.80
2023-05-15T22:07:36.186Z,4.40
2023-05-15T22:10:03.430Z,4.30
2023-05-15T22:12:32.399Z,4.00
2023-05-15T22:14:59.991Z,4.15
2023-05-15T22:17:29.406Z,4.63
2023-05-15T22:20:07.333Z,4.07
2023-05-15T22:22:35.774Z,4.55
2023-05-15T22:25:02.883Z,5.18
2023-05-15T22:27:30.019Z,4.13
2023-05-15T22:29:57.215Z,4.55
2023-05-15T22:32:24.504Z,4.05
2023-05-15T22:34:51.480Z,4.53
2023-05-15T22:37:18.544Z,4.82
2023-05-15T22:39:45.878Z,4.28
2023-05-15T22:42:12.803Z,4.90
2023-05-15T22:44:39.916Z,4.78
2023-05-15T22:47:07.879Z,4.75
2023-05-15T22:49:34.943Z,5.00
2023-05-15T22:52:02.119Z,5.60
2023-05-15T22:54:29.056Z,4.93
2023-05-15T22:56:56.243Z,6.20
2023-05-15T22:59:23.596Z,5.40
2023-05-15T23:01:50.788Z,5.05
2023-05-15T23:04:18.248Z,5.40
2023-05-15T23:06:45.704Z,5.43
2023-05-15T23:09:12.702Z,5.13
2023-05-15T23:11:39.676Z,5.57
2023-05-15T23:14:08.382Z,5.60
2023-05-15T23:16:36.074Z,5.40
2023-05-15T23:19:03.156Z,5.93
2023-05-15T23:21:30.263Z,5.65
2023-05-15T23:23:57.260Z,6.18
2023-05-15T23:26:24.307Z,6.75
2023-05-15T23:28:51.578Z,6.22
2023-05-15T23:31:18.657Z,6.50
2023-05-15T23:33:45.888Z,6.43
2023-05-15T23:36:12.900Z,6.70
2023-05-15T23:38:40.193Z,7.03
2023-05-15T23:41:07.249Z,6.85
2023-05-15T23:43:34.341Z,6.88
2023-05-15T23:48:52.956Z,6.95
2023-05-15T23:51:20.595Z,7.30
2023-05-15T23:53:48.965Z,8.63
2023-05-15T23:56:15.970Z,7.30
2023-05-15T23:58:42.887Z,7.72
